Home   Weather   USA   Houston   Past weeks
Flag for USA

Past Weather in Houston, Texas, USA — December 2020

Currently: 95 °F. Scattered clouds. (Weather station: Houston Hobby Airport, USA). See more current weather

December 2020 Weather in Houston — Graph

°F

High & Low Weather Summary for December 2020

 TemperatureHumidityPressure
High80 °F (Dec 23, 12:53 pm)97% (Dec 12, 2:59 am)30.39 "Hg (Dec 12, 2:59 am)
Low33 °F (Dec 1, 5:53 am)17% (Dec 24, 1:53 pm)29.56 "Hg (Dec 31, 1:42 pm)
Average58 °F72%30.10 "Hg
* Reported Dec 1 12:53 am — Dec 31 11:59 pm, Houston. Weather by CustomWeather, © 2022

Note: Actual official high and low records may vary slightly from our data, if they occured in-between our weather recording intervals... More about our weather records

Houston Weather History for December 1, 2020

Scroll right to see more
 ConditionsComfort  
Time TempWeatherWind HumidityBarometerVisibility
12:53 am
Tue, Dec 1
41 °FClear.No wind65%30.33 "Hg10 mi
1:53 am40 °FClear.No wind70%30.32 "Hg10 mi
2:53 am38 °FPassing clouds.No wind73%30.31 "Hg10 mi
3:53 am36 °FClear.No wind79%30.30 "Hg10 mi
4:53 am35 °FClear.No wind82%30.28 "Hg10 mi
5:53 am33 °FClear.3 mph85%30.29 "Hg10 mi
6:53 am34 °FClear.3 mph85%30.29 "Hg10 mi
7:53 am39 °FSunny.3 mph76%30.30 "Hg10 mi
8:53 am48 °FSunny.7 mph59%30.31 "Hg10 mi
9:53 am53 °FSunny.9 mph47%30.30 "Hg10 mi
10:53 am57 °FSunny.12 mph44%30.28 "Hg10 mi
1:53 pm65 °FScattered clouds.14 mph44%30.16 "Hg10 mi
2:53 pm64 °FPartly sunny.9 mph47%30.15 "Hg10 mi
3:53 pm63 °FPartly sunny.14 mph50%30.13 "Hg10 mi
4:53 pm62 °FPartly sunny.13 mph54%30.12 "Hg10 mi
5:53 pm58 °FPassing clouds.8 mph65%30.11 "Hg10 mi
6:53 pm58 °FPassing clouds.9 mph67%30.10 "Hg10 mi
7:53 pm56 °FPassing clouds.7 mph72%30.11 "Hg10 mi
8:53 pm55 °FPassing clouds.8 mph74%30.10 "Hg10 mi
9:53 pm56 °FClear.7 mph75%30.09 "Hg10 mi
10:53 pm59 °FClear.9 mph72%30.08 "Hg10 mi
11:53 pm60 °FPassing clouds.7 mph72%30.09 "Hg10 mi
Weather by CustomWeather, © 2022

See weather overview